sensor_id;sensor_type;location;lat;lon;timestamp;temperature;humidity
11454;DHT22;5783;55.174;61.310;2023-11-25T00:00:17;24.50;17.70
11454;DHT22;5783;55.174;61.310;2023-11-25T00:05:56;24.60;17.90
11454;DHT22;5783;55.174;61.310;2023-11-25T00:08:26;24.50;17.70
11454;DHT22;5783;55.174;61.310;2023-11-25T00:10:55;24.50;17.70
11454;DHT22;5783;55.174;61.310;2023-11-25T00:13:24;24.50;17.90
11454;DHT22;5783;55.174;61.310;2023-11-25T00:15:54;24.60;17.80
11454;DHT22;5783;55.174;61.310;2023-11-25T00:18:23;24.70;17.90
11454;DHT22;5783;55.174;61.310;2023-11-25T00:20:52;24.70;17.90
11454;DHT22;5783;55.174;61.310;2023-11-25T00:23:22;24.70;17.80
11454;DHT22;5783;55.174;61.310;2023-11-25T00:25:51;24.80;17.80
11454;DHT22;5783;55.174;61.310;2023-11-25T00:28:21;24.80;17.60
11454;DHT22;5783;55.174;61.310;2023-11-25T00:30:50;24.80;17.50
11454;DHT22;5783;55.174;61.310;2023-11-25T00:33:19;24.80;17.70
11454;DHT22;5783;55.174;61.310;2023-11-25T00:35:48;24.70;17.60
11454;DHT22;5783;55.174;61.310;2023-11-25T00:38:17;24.70;17.90
11454;DHT22;5783;55.174;61.310;2023-11-25T00:40:46;24.70;17.70
11454;DHT22;5783;55.174;61.310;2023-11-25T00:43:15;24.50;18.10
11454;DHT22;5783;55.174;61.310;2023-11-25T00:45:44;24.50;17.80
11454;DHT22;5783;55.174;61.310;2023-11-25T00:48:14;24.50;17.90
11454;DHT22;5783;55.174;61.310;2023-11-25T00:50:43;24.50;18.00
11454;DHT22;5783;55.174;61.310;2023-11-25T00:53:13;24.60;17.90
11454;DHT22;5783;55.174;61.310;2023-11-25T00:55:42;24.70;17.80
11454;DHT22;5783;55.174;61.310;2023-11-25T00:58:13;24.70;17.90
11454;DHT22;5783;55.174;61.310;2023-11-25T01:00:42;24.70;18.30
11454;DHT22;5783;55.174;61.310;2023-11-25T01:03:11;24.60;18.20
11454;DHT22;5783;55.174;61.310;2023-11-25T01:05:42;24.60;18.10
11454;DHT22;5783;55.174;61.310;2023-11-25T01:08:11;24.70;18.10
11454;DHT22;5783;55.174;61.310;2023-11-25T01:10:41;24.70;17.90
11454;DHT22;5783;55.174;61.310;2023-11-25T01:13:10;24.80;18.00
11454;DHT22;5783;55.174;61.310;2023-11-25T01:15:39;24.90;18.00
11454;DHT22;5783;55.174;61.310;2023-11-25T01:18:08;24.90;17.80
11454;DHT22;5783;55.174;61.310;2023-11-25T01:20:37;24.90;17.70
11454;DHT22;5783;55.174;61.310;2023-11-25T01:23:07;24.80;17.80
11454;DHT22;5783;55.174;61.310;2023-11-25T01:25:37;24.70;17.90
11454;DHT22;5783;55.174;61.310;2023-11-25T01:28:06;24.70;18.00
11454;DHT22;5783;55.174;61.310;2023-11-25T01:30:35;24.70;18.00
11454;DHT22;5783;55.174;61.310;2023-11-25T01:33:06;24.80;18.10
11454;DHT22;5783;55.174;61.310;2023-11-25T01:35:37;24.80;18.10
11454;DHT22;5783;55.174;61.310;2023-11-25T01:38:06;24.80;17.90
11454;DHT22;5783;55.174;61.310;2023-11-25T01:40:35;24.90;17.90
11454;DHT22;5783;55.174;61.310;2023-11-25T01:43:06;24.80;17.80
11454;DHT22;5783;55.174;61.310;2023-11-25T01:45:35;24.80;17.90
11454;DHT22;5783;55.174;61.310;2023-11-25T01:48:05;24.90;18.10
11454;DHT22;5783;55.174;61.310;2023-11-25T01:50:35;24.90;17.80
11454;DHT22;5783;55.174;61.310;2023-11-25T01:53:07;24.90;18.00
11454;DHT22;5783;55.174;61.310;2023-11-25T01:55:36;24.90;18.00
11454;DHT22;5783;55.174;61.310;2023-11-25T01:58:06;24.80;18.30
11454;DHT22;5783;55.174;61.310;2023-11-25T02:00:37;24.80;18.10
11454;DHT22;5783;55.174;61.310;2023-11-25T02:03:06;24.80;18.10
11454;DHT22;5783;55.174;61.310;2023-11-25T02:05:36;24.70;18.10
11454;DHT22;5783;55.174;61.310;2023-11-25T02:08:07;24.70;18.30
11454;DHT22;5783;55.174;61.310;2023-11-25T02:10:37;24.70;18.40
11454;DHT22;5783;55.174;61.310;2023-11-25T02:13:25;24.70;18.30
11454;DHT22;5783;55.174;61.310;2023-11-25T02:15:55;24.70;18.40
11454;DHT22;5783;55.174;61.310;2023-11-25T02:18:24;24.70;18.30
11454;DHT22;5783;55.174;61.310;2023-11-25T02:20:55;24.70;18.30
11454;DHT22;5783;55.174;61.310;2023-11-25T02:23:25;24.70;18.40
11454;DHT22;5783;55.174;61.310;2023-11-25T02:25:54;24.70;18.80
11454;DHT22;5783;55.174;61.310;2023-11-25T02:28:24;24.70;18.50
11454;DHT22;5783;55.174;61.310;2023-11-25T02:30:54;24.80;18.50
11454;DHT22;5783;55.174;61.310;2023-11-25T02:33:23;24.70;18.30
11454;DHT22;5783;55.174;61.310;2023-11-25T02:35:54;24.70;18.60
11454;DHT22;5783;55.174;61.310;2023-11-25T02:38:23;24.80;18.40
11454;DHT22;5783;55.174;61.310;2023-11-25T02:40:53;24.70;18.30
11454;DHT22;5783;55.174;61.310;2023-11-25T02:43:22;24.70;18.30
11454;DHT22;5783;55.174;61.310;2023-11-25T02:45:53;24.70;18.30
11454;DHT22;5783;55.174;61.310;2023-11-25T02:48:22;24.60;18.50
11454;DHT22;5783;55.174;61.310;2023-11-25T02:50:51;24.50;18.50
11454;DHT22;5783;55.174;61.310;2023-11-25T02:53:20;24.50;18.50
11454;DHT22;5783;55.174;61.310;2023-11-25T02:55:50;24.40;18.60
11454;DHT22;5783;55.174;61.310;2023-11-25T02:58:20;24.40;18.60
11454;DHT22;5783;55.174;61.310;2023-11-25T03:00:49;24.50;18.50
11454;DHT22;5783;55.174;61.310;2023-11-25T03:03:20;24.50;18.60
11454;DHT22;5783;55.174;61.310;2023-11-25T03:05:49;24.50;18.80
11454;DHT22;5783;55.174;61.310;2023-11-25T03:08:20;24.40;18.70
11454;DHT22;5783;55.174;61.310;2023-11-25T03:10:49;24.40;18.70
11454;DHT22;5783;55.174;61.310;2023-11-25T03:13:19;24.40;18.80
11454;DHT22;5783;55.174;61.310;2023-11-25T03:15:48;24.40;18.80
11454;DHT22;5783;55.174;61.310;2023-11-25T03:18:18;24.40;18.90
11454;DHT22;5783;55.174;61.310;2023-11-25T03:20:47;24.40;18.80
11454;DHT22;5783;55.174;61.310;2023-11-25T03:23:16;24.30;18.90
11454;DHT22;5783;55.174;61.310;2023-11-25T03:25:45;24.40;18.90
11454;DHT22;5783;55.174;61.310;2023-11-25T03:28:15;24.40;18.80
11454;DHT22;5783;55.174;61.310;2023-11-25T03:30:44;24.40;18.80
11454;DHT22;5783;55.174;61.310;2023-11-25T03:33:13;24.40;18.70
11454;DHT22;5783;55.174;61.310;2023-11-25T03:35:42;24.40;19.00
11454;DHT22;5783;55.174;61.310;2023-11-25T03:38:11;24.40;18.80
11454;DHT22;5783;55.174;61.310;2023-11-25T03:40:41;24.40;18.70
11454;DHT22;5783;55.174;61.310;2023-11-25T03:43:10;24.20;18.90
11454;DHT22;5783;55.174;61.310;2023-11-25T03:45:40;24.10;18.90
11454;DHT22;5783;55.174;61.310;2023-11-25T03:48:10;24.00;19.00
11454;DHT22;5783;55.174;61.310;2023-11-25T03:50:40;24.00;19.10
11454;DHT22;5783;55.174;61.310;2023-11-25T03:53:11;24.00;19.20
11454;DHT22;5783;55.174;61.310;2023-11-25T03:55:41;24.00;19.10
11454;DHT22;5783;55.174;61.310;2023-11-25T03:58:10;24.00;19.10
11454;DHT22;5783;55.174;61.310;2023-11-25T04:00:40;23.90;19.10
11454;DHT22;5783;55.174;61.310;2023-11-25T04:03:09;24.00;19.30
11454;DHT22;5783;55.174;61.310;2023-11-25T04:05:38;24.00;19.30
11454;DHT22;5783;55.174;61.310;2023-11-25T04:08:07;24.10;19.40
11454;DHT22;5783;55.174;61.310;2023-11-25T04:10:36;24.10;19.20
11454;DHT22;5783;55.174;61.310;2023-11-25T04:13:06;24.10;19.30
11454;DHT22;5783;55.174;61.310;2023-11-25T04:15:35;24.20;19.30
11454;DHT22;5783;55.174;61.310;2023-11-25T04:18:05;24.10;19.20
11454;DHT22;5783;55.174;61.310;2023-11-25T04:20:34;24.10;19.20
11454;DHT22;5783;55.174;61.310;2023-11-25T04:23:03;24.00;19.30
11454;DHT22;5783;55.174;61.310;2023-11-25T04:25:52;24.00;19.90
11454;DHT22;5783;55.174;61.310;2023-11-25T04:28:21;24.10;19.50
11454;DHT22;5783;55.174;61.310;2023-11-25T04:30:50;24.10;19.40
11454;DHT22;5783;55.174;61.310;2023-11-25T04:33:19;24.00;19.30
11454;DHT22;5783;55.174;61.310;2023-11-25T04:35:48;24.00;19.50
11454;DHT22;5783;55.174;61.310;2023-11-25T04:38:19;24.10;19.50
11454;DHT22;5783;55.174;61.310;2023-11-25T04:40:50;24.10;19.30
11454;DHT22;5783;55.174;61.310;2023-11-25T04:43:19;24.00;19.40
11454;DHT22;5783;55.174;61.310;2023-11-25T04:45:48;24.00;19.40
11454;DHT22;5783;55.174;61.310;2023-11-25T04:48:18;24.00;19.40
11454;DHT22;5783;55.174;61.310;2023-11-25T04:50:47;24.00;19.50
11454;DHT22;5783;55.174;61.310;2023-11-25T04:53:16;24.10;19.70
11454;DHT22;5783;55.174;61.310;2023-11-25T04:55:45;24.30;20.40
11454;DHT22;5783;55.174;61.310;2023-11-25T04:58:15;24.40;20.30
11454;DHT22;5783;55.174;61.310;2023-11-25T05:00:45;24.40;20.30
11454;DHT22;5783;55.174;61.310;2023-11-25T05:03:14;24.50;20.30
11454;DHT22;5783;55.174;61.310;2023-11-25T05:05:43;24.70;20.20
11454;DHT22;5783;55.174;61.310;2023-11-25T05:08:13;24.70;20.10
11454;DHT22;5783;55.174;61.310;2023-11-25T05:10:43;24.70;20.20
11454;DHT22;5783;55.174;61.310;2023-11-25T05:13:12;24.70;20.30
11454;DHT22;5783;55.174;61.310;2023-11-25T05:15:43;24.90;19.50
11454;DHT22;5783;55.174;61.310;2023-11-25T05:18:12;25.00;18.70
11454;DHT22;5783;55.174;61.310;2023-11-25T05:20:41;24.90;18.50
11454;DHT22;5783;55.174;61.310;2023-11-25T05:23:11;24.90;18.50
11454;DHT22;5783;55.174;61.310;2023-11-25T05:25:40;24.70;18.60
11454;DHT22;5783;55.174;61.310;2023-11-25T05:28:09;24.60;18.60
11454;DHT22;5783;55.174;61.310;2023-11-25T05:30:38;24.60;18.50
11454;DHT22;5783;55.174;61.310;2023-11-25T05:33:08;24.40;18.60
11454;DHT22;5783;55.174;61.310;2023-11-25T05:35:37;24.20;18.90
11454;DHT22;5783;55.174;61.310;2023-11-25T05:40:35;23.70;18.60
11454;DHT22;5783;55.174;61.310;2023-11-25T05:43:04;23.40;19.30
11454;DHT22;5783;55.174;61.310;2023-11-25T05:45:35;23.10;19.50
11454;DHT22;5783;55.174;61.310;2023-11-25T05:48:06;22.90;19.90
11454;DHT22;5783;55.174;61.310;2023-11-25T05:50:36;23.10;20.40
11454;DHT22;5783;55.174;61.310;2023-11-25T05:53:05;23.40;20.70
11454;DHT22;5783;55.174;61.310;2023-11-25T05:55:34;23.70;20.10
11454;DHT22;5783;55.174;61.310;2023-11-25T05:58:03;24.00;20.00
11454;DHT22;5783;55.174;61.310;2023-11-25T06:00:32;24.30;20.00
11454;DHT22;5783;55.174;61.310;2023-11-25T06:03:02;24.40;19.70
11454;DHT22;5783;55.174;61.310;2023-11-25T06:05:31;24.50;19.70
11454;DHT22;5783;55.174;61.310;2023-11-25T06:08:01;24.50;19.80
11454;DHT22;5783;55.174;61.310;2023-11-25T06:10:30;24.60;19.90
11454;DHT22;5783;55.174;61.310;2023-11-25T06:12:59;24.60;19.80
11454;DHT22;5783;55.174;61.310;2023-11-25T06:15:30;24.50;19.90
11454;DHT22;5783;55.174;61.310;2023-11-25T06:17:59;24.50;20.00
11454;DHT22;5783;55.174;61.310;2023-11-25T06:20:28;24.60;20.10
11454;DHT22;5783;55.174;61.310;2023-11-25T06:22:57;24.60;20.10
11454;DHT22;5783;55.174;61.310;2023-11-25T06:25:26;24.70;20.30
11454;DHT22;5783;55.174;61.310;2023-11-25T06:27:55;24.60;20.50
11454;DHT22;5783;55.174;61.310;2023-11-25T06:30:24;24.60;20.50
11454;DHT22;5783;55.174;61.310;2023-11-25T06:32:54;24.40;20.50
11454;DHT22;5783;55.174;61.310;2023-11-25T06:35:23;24.30;20.70
11454;DHT22;5783;55.174;61.310;2023-11-25T06:37:53;24.50;20.60
11454;DHT22;5783;55.174;61.310;2023-11-25T06:40:22;24.60;20.50
11454;DHT22;5783;55.174;61.310;2023-11-25T06:42:51;24.80;20.60
11454;DHT22;5783;55.174;61.310;2023-11-25T06:45:21;25.00;20.30
11454;DHT22;5783;55.174;61.310;2023-11-25T06:47:52;24.90;20.30
11454;DHT22;5783;55.174;61.310;2023-11-25T06:50:21;25.00;20.40
11454;DHT22;5783;55.174;61.310;2023-11-25T06:52:50;25.10;20.10
11454;DHT22;5783;55.174;61.310;2023-11-25T06:55:19;25.10;19.90
11454;DHT22;5783;55.174;61.310;2023-11-25T06:57:49;25.20;20.30
11454;DHT22;5783;55.174;61.310;2023-11-25T07:00:18;25.30;20.30
11454;DHT22;5783;55.174;61.310;2023-11-25T07:02:49;25.60;20.20
11454;DHT22;5783;55.174;61.310;2023-11-25T07:05:18;25.50;20.20
11454;DHT22;5783;55.174;61.310;2023-11-25T07:07:47;25.40;20.50
11454;DHT22;5783;55.174;61.310;2023-11-25T07:10:16;25.40;20.60
11454;DHT22;5783;55.174;61.310;2023-11-25T07:12:48;25.50;21.00
11454;DHT22;5783;55.174;61.310;2023-11-25T07:15:17;25.60;20.70
11454;DHT22;5783;55.174;61.310;2023-11-25T07:17:47;25.70;20.70
11454;DHT22;5783;55.174;61.310;2023-11-25T07:20:16;25.80;20.60
11454;DHT22;5783;55.174;61.310;2023-11-25T07:22:45;25.80;20.50
11454;DHT22;5783;55.174;61.310;2023-11-25T07:25:15;25.80;20.30
11454;DHT22;5783;55.174;61.310;2023-11-25T07:27:45;25.80;20.50
11454;DHT22;5783;55.174;61.310;2023-11-25T07:30:15;25.90;20.40
11454;DHT22;5783;55.174;61.310;2023-11-25T07:32:45;26.10;20.30
11454;DHT22;5783;55.174;61.310;2023-11-25T07:35:14;26.10;20.20
11454;DHT22;5783;55.174;61.310;2023-11-25T07:37:43;26.20;20.10
11454;DHT22;5783;55.174;61.310;2023-11-25T07:40:13;26.20;20.00
11454;DHT22;5783;55.174;61.310;2023-11-25T07:42:43;26.20;19.70
11454;DHT22;5783;55.174;61.310;2023-11-25T07:45:15;26.10;20.40
11454;DHT22;5783;55.174;61.310;2023-11-25T07:47:45;26.30;19.80
11454;DHT22;5783;55.174;61.310;2023-11-25T07:50:14;26.40;20.10
11454;DHT22;5783;55.174;61.310;2023-11-25T07:52:43;26.40;19.60
11454;DHT22;5783;55.174;61.310;2023-11-25T07:55:12;26.30;19.60
11454;DHT22;5783;55.174;61.310;2023-11-25T07:57:41;26.20;19.60
11454;DHT22;5783;55.174;61.310;2023-11-25T08:00:10;26.10;19.80
11454;DHT22;5783;55.174;61.310;2023-11-25T08:02:41;26.10;19.70
11454;DHT22;5783;55.174;61.310;2023-11-25T08:05:11;26.00;19.70
11454;DHT22;5783;55.174;61.310;2023-11-25T08:07:41;25.90;19.90
11454;DHT22;5783;55.174;61.310;2023-11-25T08:10:11;25.90;19.90
11454;DHT22;5783;55.174;61.310;2023-11-25T08:12:43;25.80;20.10
11454;DHT22;5783;55.174;61.310;2023-11-25T08:15:32;25.80;20.20
11454;DHT22;5783;55.174;61.310;2023-11-25T08:18:01;25.90;20.40
11454;DHT22;5783;55.174;61.310;2023-11-25T08:20:30;25.90;20.90
11454;DHT22;5783;55.174;61.310;2023-11-25T08:23:02;25.90;20.50
11454;DHT22;5783;55.174;61.310;2023-11-25T08:25:31;25.90;20.60
11454;DHT22;5783;55.174;61.310;2023-11-25T08:27:59;25.90;20.50
11454;DHT22;5783;55.174;61.310;2023-11-25T08:30:29;25.90;20.40
11454;DHT22;5783;55.174;61.310;2023-11-25T08:33:00;25.90;20.30
11454;DHT22;5783;55.174;61.310;2023-11-25T08:35:30;25.90;20.40
11454;DHT22;5783;55.174;61.310;2023-11-25T08:37:59;25.90;20.30
11454;DHT22;5783;55.174;61.310;2023-11-25T08:40:28;25.90;20.30
11454;DHT22;5783;55.174;61.310;2023-11-25T08:42:56;25.80;20.40
11454;DHT22;5783;55.174;61.310;2023-11-25T08:45:27;25.60;20.40
11454;DHT22;5783;55.174;61.310;2023-11-25T08:47:56;25.50;20.60
11454;DHT22;5783;55.174;61.310;2023-11-25T08:50:25;25.40;20.70
11454;DHT22;5783;55.174;61.310;2023-11-25T08:52:55;25.40;20.90
11454;DHT22;5783;55.174;61.310;2023-11-25T08:55:24;25.40;20.80
11454;DHT22;5783;55.174;61.310;2023-11-25T08:57:54;25.30;20.80
11454;DHT22;5783;55.174;61.310;2023-11-25T09:00:23;25.30;20.90
11454;DHT22;5783;55.174;61.310;2023-11-25T09:02:54;25.30;20.90
11454;DHT22;5783;55.174;61.310;2023-11-25T09:05:24;25.30;21.00
11454;DHT22;5783;55.174;61.310;2023-11-25T09:07:55;25.30;21.00
11454;DHT22;5783;55.174;61.310;2023-11-25T09:10:26;25.40;21.00
11454;DHT22;5783;55.174;61.310;2023-11-25T09:12:55;25.40;21.10
11454;DHT22;5783;55.174;61.310;2023-11-25T09:15:24;25.30;21.20
11454;DHT22;5783;55.174;61.310;2023-11-25T09:17:54;25.40;21.10
11454;DHT22;5783;55.174;61.310;2023-11-25T09:20:24;25.40;21.10
11454;DHT22;5783;55.174;61.310;2023-11-25T09:22:53;25.50;21.30
11454;DHT22;5783;55.174;61.310;2023-11-25T09:25:22;25.40;21.10
11454;DHT22;5783;55.174;61.310;2023-11-25T09:27:51;25.50;21.20
11454;DHT22;5783;55.174;61.310;2023-11-25T09:30:21;25.40;21.20
11454;DHT22;5783;55.174;61.310;2023-11-25T09:32:50;25.50;21.40
11454;DHT22;5783;55.174;61.310;2023-11-25T09:35:20;25.60;21.10
11454;DHT22;5783;55.174;61.310;2023-11-25T09:37:49;25.70;21.10
11454;DHT22;5783;55.174;61.310;2023-11-25T09:40:19;25.60;21.00
11454;DHT22;5783;55.174;61.310;2023-11-25T09:42:48;25.70;21.10
11454;DHT22;5783;55.174;61.310;2023-11-25T09:45:19;25.70;21.20
11454;DHT22;5783;55.174;61.310;2023-11-25T09:47:51;25.90;21.20
11454;DHT22;5783;55.174;61.310;2023-11-25T09:50:21;26.00;21.10
11454;DHT22;5783;55.174;61.310;2023-11-25T09:52:51;26.00;21.10
11454;DHT22;5783;55.174;61.310;2023-11-25T09:55:23;26.10;21.00
11454;DHT22;5783;55.174;61.310;2023-11-25T09:58:11;26.10;21.10
11454;DHT22;5783;55.174;61.310;2023-11-25T10:00:42;26.10;20.80
11454;DHT22;5783;55.174;61.310;2023-11-25T10:03:12;26.10;21.00
11454;DHT22;5783;55.174;61.310;2023-11-25T10:05:43;26.00;21.00
11454;DHT22;5783;55.174;61.310;2023-11-25T10:08:12;26.00;21.10
11454;DHT22;5783;55.174;61.310;2023-11-25T10:10:57;26.00;21.10
11454;DHT22;5783;55.174;61.310;2023-11-25T10:13:14;26.10;21.10
11454;DHT22;5783;55.174;61.310;2023-11-25T10:15:45;26.10;21.10
11454;DHT22;5783;55.174;61.310;2023-11-25T10:18:14;26.10;21.20
11454;DHT22;5783;55.174;61.310;2023-11-25T10:20:45;26.00;21.30
11454;DHT22;5783;55.174;61.310;2023-11-25T10:26:05;26.10;21.50
11454;DHT22;5783;55.174;61.310;2023-11-25T10:28:35;26.10;21.40
11454;DHT22;5783;55.174;61.310;2023-11-25T10:31:05;26.00;21.50
11454;DHT22;5783;55.174;61.310;2023-11-25T10:33:55;26.00;21.60
11454;DHT22;5783;55.174;61.310;2023-11-25T10:36:26;26.10;21.60
11454;DHT22;5783;55.174;61.310;2023-11-25T10:38:55;26.10;21.60
11454;DHT22;5783;55.174;61.310;2023-11-25T10:41:27;26.20;21.50
11454;DHT22;5783;55.174;61.310;2023-11-25T10:43:57;26.30;21.50
11454;DHT22;5783;55.174;61.310;2023-11-25T10:46:36;26.30;21.40
11454;DHT22;5783;55.174;61.310;2023-11-25T10:48:58;26.30;21.50
11454;DHT22;5783;55.174;61.310;2023-11-25T10:51:26;26.40;21.80
11454;DHT22;5783;55.174;61.310;2023-11-25T10:53:55;26.40;22.30
11454;DHT22;5783;55.174;61.310;2023-11-25T10:56:25;26.40;23.10
11454;DHT22;5783;55.174;61.310;2023-11-25T10:58:55;26.40;23.20
11454;DHT22;5783;55.174;61.310;2023-11-25T11:01:46;26.40;23.00
11454;DHT22;5783;55.174;61.310;2023-11-25T11:04:36;26.40;22.90
11454;DHT22;5783;55.174;61.310;2023-11-25T11:07:07;26.40;22.80
11454;DHT22;5783;55.174;61.310;2023-11-25T11:09:39;26.40;22.80
11454;DHT22;5783;55.174;61.310;2023-11-25T11:12:47;26.40;22.70
11454;DHT22;5783;55.174;61.310;2023-11-25T11:14:39;26.40;22.50
11454;DHT22;5783;55.174;61.310;2023-11-25T11:19:59;26.50;22.20
11454;DHT22;5783;55.174;61.310;2023-11-25T11:22:32;26.60;22.20
11454;DHT22;5783;55.174;61.310;2023-11-25T11:28:21;26.60;22.10
11454;DHT22;5783;55.174;61.310;2023-11-25T11:33:09;26.50;22.20
11454;DHT22;5783;55.174;61.310;2023-11-25T11:35:39;26.50;22.40
11454;DHT22;5783;55.174;61.310;2023-11-25T11:40:58;26.40;21.70
11454;DHT22;5783;55.174;61.310;2023-11-25T11:43:27;26.60;22.20
11454;DHT22;5783;55.174;61.310;2023-11-25T11:45:55;26.60;22.20
11454;DHT22;5783;55.174;61.310;2023-11-25T11:48:24;26.60;22.30
11454;DHT22;5783;55.174;61.310;2023-11-25T11:50:53;26.50;22.30
11454;DHT22;5783;55.174;61.310;2023-11-25T11:53:22;26.40;22.20
11454;DHT22;5783;55.174;61.310;2023-11-25T11:55:52;26.30;22.20
11454;DHT22;5783;55.174;61.310;2023-11-25T11:58:21;26.20;22.40
11454;DHT22;5783;55.174;61.310;2023-11-25T12:01:10;26.20;22.40
11454;DHT22;5783;55.174;61.310;2023-11-25T12:03:39;26.10;22.30
11454;DHT22;5783;55.174;61.310;2023-11-25T12:06:08;26.00;22.30
11454;DHT22;5783;55.174;61.310;2023-11-25T12:08:37;26.00;22.80
11454;DHT22;5783;55.174;61.310;2023-11-25T12:11:05;25.90;22.80
11454;DHT22;5783;55.174;61.310;2023-11-25T12:13:34;25.90;22.80
11454;DHT22;5783;55.174;61.310;2023-11-25T12:16:03;25.90;23.00
11454;DHT22;5783;55.174;61.310;2023-11-25T12:21:02;25.90;23.10
11454;DHT22;5783;55.174;61.310;2023-11-25T12:23:32;25.80;23.10
11454;DHT22;5783;55.174;61.310;2023-11-25T12:26:01;25.70;23.10
11454;DHT22;5783;55.174;61.310;2023-11-25T12:28:31;25.70;25.30
11454;DHT22;5783;55.174;61.310;2023-11-25T12:31:01;25.80;23.40
11454;DHT22;5783;55.174;61.310;2023-11-25T12:33:30;25.80;23.40
11454;DHT22;5783;55.174;61.310;2023-11-25T12:35:58;25.80;23.30
11454;DHT22;5783;55.174;61.310;2023-11-25T12:38:28;25.80;29.00
11454;DHT22;5783;55.174;61.310;2023-11-25T12:40:58;25.90;25.00
11454;DHT22;5783;55.174;61.310;2023-11-25T12:43:28;25.80;23.50
11454;DHT22;5783;55.174;61.310;2023-11-25T12:45:57;25.80;23.60
11454;DHT22;5783;55.174;61.310;2023-11-25T12:48:46;26.20;27.70
11454;DHT22;5783;55.174;61.310;2023-11-25T12:51:15;25.70;23.60
11454;DHT22;5783;55.174;61.310;2023-11-25T12:56:33;25.30;31.00
11454;DHT22;5783;55.174;61.310;2023-11-25T12:59:03;24.80;26.70
11454;DHT22;5783;55.174;61.310;2023-11-25T13:01:32;25.40;32.00
11454;DHT22;5783;55.174;61.310;2023-11-25T13:04:21;25.20;23.50
11454;DHT22;5783;55.174;61.310;2023-11-25T13:06:51;25.30;23.70
11454;DHT22;5783;55.174;61.310;2023-11-25T13:09:24;25.30;24.10
11454;DHT22;5783;55.174;61.310;2023-11-25T13:11:55;25.60;24.50
11454;DHT22;5783;55.174;61.310;2023-11-25T13:14:25;25.40;23.50
11454;DHT22;5783;55.174;61.310;2023-11-25T13:16:56;25.80;31.30
11454;DHT22;5783;55.174;61.310;2023-11-25T13:19:25;25.60;24.20
11454;DHT22;5783;55.174;61.310;2023-11-25T13:21:54;25.40;25.30
11454;DHT22;5783;55.174;61.310;2023-11-25T13:24:23;25.70;36.80
11454;DHT22;5783;55.174;61.310;2023-11-25T13:26:52;25.40;29.00
11454;DHT22;5783;55.174;61.310;2023-11-25T13:29:22;25.50;24.10
11454;DHT22;5783;55.174;61.310;2023-11-25T13:31:51;25.50;24.60
11454;DHT22;5783;55.174;61.310;2023-11-25T13:34:20;25.30;29.30
11454;DHT22;5783;55.174;61.310;2023-11-25T13:36:49;25.30;38.80
11454;DHT22;5783;55.174;61.310;2023-11-25T13:39:18;26.00;35.20
11454;DHT22;5783;55.174;61.310;2023-11-25T13:46:44;25.70;24.00
11454;DHT22;5783;55.174;61.310;2023-11-25T13:49:13;26.30;34.20
11454;DHT22;5783;55.174;61.310;2023-11-25T13:51:41;25.70;37.60
11454;DHT22;5783;55.174;61.310;2023-11-25T13:56:38;25.90;23.70
11454;DHT22;5783;55.174;61.310;2023-11-25T13:59:07;26.00;24.30
11454;DHT22;5783;55.174;61.310;2023-11-25T14:01:35;26.70;37.00
11454;DHT22;5783;55.174;61.310;2023-11-25T14:04:03;26.00;24.30
11454;DHT22;5783;55.174;61.310;2023-11-25T14:06:33;26.00;24.30
11454;DHT22;5783;55.174;61.310;2023-11-25T14:09:01;26.00;24.60
11454;DHT22;5783;55.174;61.310;2023-11-25T14:11:30;25.90;24.40
11454;DHT22;5783;55.174;61.310;2023-11-25T14:14:00;25.90;24.60
11454;DHT22;5783;55.174;61.310;2023-11-25T14:16:28;25.50;40.90
11454;DHT22;5783;55.174;61.310;2023-11-25T14:21:25;26.30;33.70
11454;DHT22;5783;55.174;61.310;2023-11-25T14:23:54;25.80;35.00
11454;DHT22;5783;55.174;61.310;2023-11-25T14:26:23;25.60;37.70
11454;DHT22;5783;55.174;61.310;2023-11-25T14:28:53;26.20;30.10
11454;DHT22;5783;55.174;61.310;2023-11-25T14:31:21;26.60;24.10
11454;DHT22;5783;55.174;61.310;2023-11-25T14:33:50;26.60;29.50
11454;DHT22;5783;55.174;61.310;2023-11-25T14:36:18;26.30;37.30
11454;DHT22;5783;55.174;61.310;2023-11-25T14:38:48;26.40;25.60
11454;DHT22;5783;55.174;61.310;2023-11-25T14:41:38;26.60;23.60
11454;DHT22;5783;55.174;61.310;2023-11-25T14:44:06;26.50;27.10
11454;DHT22;5783;55.174;61.310;2023-11-25T14:46:36;25.80;30.90
11454;DHT22;5783;55.174;61.310;2023-11-25T14:49:06;26.10;24.80
11454;DHT22;5783;55.174;61.310;2023-11-25T14:51:36;25.60;30.40
11454;DHT22;5783;55.174;61.310;2023-11-25T14:54:04;26.10;23.70
11454;DHT22;5783;55.174;61.310;2023-11-25T14:56:33;26.50;24.10
11454;DHT22;5783;55.174;61.310;2023-11-25T14:59:02;26.00;32.70
11454;DHT22;5783;55.174;61.310;2023-11-25T15:01:31;26.20;27.10
11454;DHT22;5783;55.174;61.310;2023-11-25T15:04:01;26.30;36.40
11454;DHT22;5783;55.174;61.310;2023-11-25T15:06:30;25.50;33.90
11454;DHT22;5783;55.174;61.310;2023-11-25T15:11:27;25.90;24.00
11454;DHT22;5783;55.174;61.310;2023-11-25T15:13:56;25.90;24.40
11454;DHT22;5783;55.174;61.310;2023-11-25T15:16:24;25.90;37.60
11454;DHT22;5783;55.174;61.310;2023-11-25T15:18:52;25.60;28.30
11454;DHT22;5783;55.174;61.310;2023-11-25T15:21:21;26.40;34.00
11454;DHT22;5783;55.174;61.310;2023-11-25T15:23:49;25.90;34.70
11454;DHT22;5783;55.174;61.310;2023-11-25T15:26:18;26.30;32.50
11454;DHT22;5783;55.174;61.310;2023-11-25T15:28:47;26.70;35.60
11454;DHT22;5783;55.174;61.310;2023-11-25T15:31:16;25.90;37.50
11454;DHT22;5783;55.174;61.310;2023-11-25T15:33:45;26.60;37.10
11454;DHT22;5783;55.174;61.310;2023-11-25T15:41:10;26.10;43.50
11454;DHT22;5783;55.174;61.310;2023-11-25T15:46:26;26.10;34.20
11454;DHT22;5783;55.174;61.310;2023-11-25T15:53:52;26.20;27.40
11454;DHT22;5783;55.174;61.310;2023-11-25T15:58:50;25.90;40.30
11454;DHT22;5783;55.174;61.310;2023-11-25T16:01:19;26.90;52.80
11454;DHT22;5783;55.174;61.310;2023-11-25T16:03:50;26.60;23.50
11454;DHT22;5783;55.174;61.310;2023-11-25T16:08:46;26.10;28.30
11454;DHT22;5783;55.174;61.310;2023-11-25T16:11:15;27.00;40.30
11454;DHT22;5783;55.174;61.310;2023-11-25T16:19:02;25.70;38.50
11454;DHT22;5783;55.174;61.310;2023-11-25T16:24:05;25.90;41.00
11454;DHT22;5783;55.174;61.310;2023-11-25T16:26:36;27.00;30.90
11454;DHT22;5783;55.174;61.310;2023-11-25T16:31:57;26.70;26.50
11454;DHT22;5783;55.174;61.310;2023-11-25T16:34:27;26.50;24.20
11454;DHT22;5783;55.174;61.310;2023-11-25T16:36:55;26.40;24.10
11454;DHT22;5783;55.174;61.310;2023-11-25T16:39:24;26.40;24.10
11454;DHT22;5783;55.174;61.310;2023-11-25T16:41:52;26.50;24.20
11454;DHT22;5783;55.174;61.310;2023-11-25T16:44:20;26.50;24.10
11454;DHT22;5783;55.174;61.310;2023-11-25T16:49:23;26.40;24.10
11454;DHT22;5783;55.174;61.310;2023-11-25T16:51:51;26.40;24.20
11454;DHT22;5783;55.174;61.310;2023-11-25T16:54:23;26.30;45.10